createdAt,value
2022-10-13T00:01:44.399Z,4.45
2022-10-13T00:04:12.094Z,4.43
2022-10-13T00:06:39.894Z,4.70
2022-10-13T00:09:07.552Z,4.05
2022-10-13T00:11:36.610Z,4.63
2022-10-13T00:14:05.369Z,4.93
2022-10-13T00:16:33.344Z,4.22
2022-10-13T00:19:01.104Z,4.45
2022-10-13T00:21:29.334Z,3.95
2022-10-13T00:23:57.347Z,4.10
2022-10-13T00:29:13.150Z,4.15
2022-10-13T00:31:40.946Z,4.85
2022-10-13T00:34:08.555Z,5.63
2022-10-13T00:36:36.257Z,4.90
2022-10-13T00:39:04.085Z,4.30
2022-10-13T00:41:31.746Z,4.07
2022-10-13T00:44:01.306Z,3.92
2022-10-13T00:46:32.449Z,4.47
2022-10-13T00:49:01.834Z,4.25
2022-10-13T00:51:32.825Z,3.90
2022-10-13T00:54:02.324Z,4.93
2022-10-13T00:56:30.621Z,5.00
2022-10-13T00:58:59.156Z,4.25
2022-10-13T01:01:26.977Z,3.92
2022-10-13T01:03:55.952Z,5.18
2022-10-13T01:06:24.543Z,4.07
2022-10-13T01:08:52.211Z,5.43
2022-10-13T01:11:44.819Z,4.72
2022-10-13T01:14:21.289Z,5.05
2022-10-13T01:17:11.442Z,4.30
2022-10-13T01:20:24.047Z,4.95
2022-10-13T01:23:13.331Z,4.75
2022-10-13T01:25:58.055Z,4.70
2022-10-13T01:28:41.036Z,4.45
2022-10-13T01:31:16.009Z,5.55
2022-10-13T01:33:49.418Z,5.65
2022-10-13T01:36:26.987Z,4.35
2022-10-13T01:39:00.670Z,4.78
2022-10-13T01:41:35.281Z,4.20
2022-10-13T01:44:12.645Z,4.57
2022-10-13T01:46:42.462Z,4.95
2022-10-13T01:49:13.034Z,4.30
2022-10-13T01:51:42.110Z,4.70
2022-10-13T01:54:10.114Z,5.40
2022-10-13T01:56:38.112Z,4.70
2022-10-13T01:59:10.184Z,5.05
2022-10-13T02:01:51.178Z,5.50
2022-10-13T02:04:27.449Z,5.35
2022-10-13T02:07:02.047Z,4.18
2022-10-13T02:09:40.759Z,4.65
2022-10-13T02:12:13.131Z,4.43
2022-10-13T02:14:45.247Z,5.28
2022-10-13T02:17:15.958Z,3.97
2022-10-13T02:19:44.340Z,4.70
2022-10-13T02:22:16.016Z,4.65
2022-10-13T02:24:43.940Z,5.45
2022-10-13T02:27:11.798Z,4.80
2022-10-13T02:29:50.729Z,4.75
2022-10-13T02:32:20.090Z,4.40
2022-10-13T02:34:48.027Z,5.03
2022-10-13T02:37:15.672Z,4.55
2022-10-13T02:39:43.349Z,4.75
2022-10-13T02:42:11.222Z,4.35
2022-10-13T02:44:39.969Z,4.82
2022-10-13T02:47:07.611Z,4.78
2022-10-13T02:49:36.681Z,4.75
2022-10-13T02:52:04.325Z,4.90
2022-10-13T02:54:31.951Z,4.95
2022-10-13T02:56:59.591Z,5.85
2022-10-13T02:59:27.329Z,5.25
2022-10-13T03:01:55.168Z,5.15
2022-10-13T03:04:22.806Z,5.65
2022-10-13T03:06:51.730Z,4.47
2022-10-13T03:09:19.371Z,4.70
2022-10-13T03:11:46.983Z,4.80
2022-10-13T03:14:14.631Z,4.70
2022-10-13T03:16:42.342Z,5.28
2022-10-13T03:19:09.992Z,5.97
2022-10-13T03:21:38.708Z,4.50
2022-10-13T03:24:08.070Z,5.18
2022-10-13T03:26:35.832Z,5.53
2022-10-13T03:29:03.694Z,5.32
2022-10-13T03:31:31.769Z,4.78
2022-10-13T03:33:59.431Z,5.20
2022-10-13T03:36:27.287Z,5.63
2022-10-13T03:38:54.916Z,5.65
2022-10-13T03:41:23.938Z,5.90
2022-10-13T03:43:51.759Z,4.75
2022-10-13T03:46:19.802Z,5.20
2022-10-13T03:48:48.743Z,5.22
2022-10-13T03:51:19.197Z,5.63
2022-10-13T03:53:47.568Z,5.40
2022-10-13T03:56:17.427Z,5.70
2022-10-13T03:58:46.573Z,4.57
2022-10-13T04:01:14.973Z,5.38
2022-10-13T04:03:42.629Z,5.88
2022-10-13T04:06:10.705Z,7.32
2022-10-13T04:08:38.900Z,5.03
2022-10-13T04:11:09.154Z,5.65
2022-10-13T04:13:37.077Z,5.70
2022-10-13T04:16:08.673Z,5.78
2022-10-13T04:18:38.145Z,5.78
2022-10-13T04:21:09.314Z,5.43
2022-10-13T04:23:37.069Z,5.25
2022-10-13T04:26:05.290Z,6.25
2022-10-13T04:28:35.743Z,5.53
2022-10-13T04:31:03.994Z,5.47
2022-10-13T04:33:32.982Z,5.72
2022-10-13T04:36:03.931Z,5.40
2022-10-13T04:38:31.702Z,5.60
2022-10-13T04:40:59.514Z,5.40
2022-10-13T04:43:27.238Z,5.65
2022-10-13T04:45:54.937Z,5.43
2022-10-13T04:48:22.591Z,5.63
2022-10-13T04:51:01.045Z,5.80
2022-10-13T04:53:29.836Z,6.25
2022-10-13T04:56:01.281Z,5.85
2022-10-13T04:58:29.356Z,5.80
2022-10-13T05:00:57.474Z,5.78
2022-10-13T05:03:25.946Z,5.75
2022-10-13T05:05:54.065Z,6.75
2022-10-13T05:08:23.533Z,6.07
2022-10-13T05:10:55.889Z,5.93
2022-10-13T05:13:24.084Z,6.05
2022-10-13T05:15:51.971Z,6.45
2022-10-13T05:18:19.696Z,6.97
2022-10-13T05:20:47.448Z,7.13
2022-10-13T05:23:15.892Z,6.65
2022-10-13T05:25:45.096Z,6.22
2022-10-13T05:28:13.096Z,6.15
2022-10-13T05:30:40.833Z,6.93
2022-10-13T05:33:09.145Z,6.45
2022-10-13T05:35:36.866Z,6.68
2022-10-13T05:38:04.543Z,7.00
2022-10-13T05:40:33.528Z,6.40
2022-10-13T05:43:02.584Z,6.60
2022-10-13T05:45:33.183Z,6.22
2022-10-13T05:48:00.936Z,6.47
2022-10-13T05:50:29.367Z,6.95
2022-10-13T05:52:58.079Z,5.93
2022-10-13T05:55:25.941Z,7.40
2022-10-13T05:57:53.801Z,7.78
2022-10-13T06:00:23.361Z,7.25
2022-10-13T06:02:56.685Z,7.47
2022-10-13T06:05:27.185Z,7.57
2022-10-13T06:07:55.643Z,6.90
2022-10-13T06:10:24.709Z,6.70
2022-10-13T06:12:52.366Z,8.05
2022-10-13T06:15:23.287Z,6.68
2022-10-13T06:17:54.788Z,7.68
2022-10-13T06:20:22.698Z,6.90
2022-10-13T06:22:50.986Z,7.55
2022-10-13T06:25:18.728Z,7.80
2022-10-13T06:27:46.430Z,7.22
2022-10-13T06:30:14.450Z,8.85
2022-10-13T06:32:42.506Z,6.97
2022-10-13T06:35:12.359Z,7.38
2022-10-13T06:37:40.460Z,7.68
2022-10-13T06:40:09.326Z,8.70
2022-10-13T06:42:36.968Z,5.95
2022-10-13T06:45:05.030Z,7.75
2022-10-13T06:47:32.703Z,7.70
2022-10-13T06:50:00.315Z,8.32
2022-10-13T06:52:29.677Z,6.50
2022-10-13T06:54:57.271Z,7.38
2022-10-13T06:57:24.917Z,7.93
2022-10-13T06:59:52.970Z,7.88
2022-10-13T07:02:20.942Z,7.38
2022-10-13T07:04:48.853Z,7.50
2022-10-13T07:07:17.018Z,6.80
2022-10-13T07:09:46.001Z,7.07
2022-10-13T07:12:14.078Z,9.07
2022-10-13T07:14:43.799Z,8.15
2022-10-13T07:17:12.003Z,7.72
2022-10-13T07:19:39.592Z,7.90
2022-10-13T07:22:07.298Z,8.55
2022-10-13T07:24:34.909Z,6.53
2022-10-13T07:27:07.597Z,8.13
2022-10-13T07:29:35.741Z,7.55
2022-10-13T07:32:03.431Z,7.20
2022-10-13T07:34:31.085Z,8.18
2022-10-13T07:36:58.740Z,8.27
2022-10-13T07:39:26.494Z,8.68
2022-10-13T07:41:54.172Z,7.93
2022-10-13T07:44:23.556Z,7.30
2022-10-13T07:46:51.215Z,7.28
2022-10-13T07:49:19.047Z,7.53
2022-10-13T07:51:46.715Z,7.00
2022-10-13T07:54:14.406Z,8.40
2022-10-13T07:56:42.044Z,8.27
2022-10-13T07:59:09.742Z,7.00
2022-10-13T08:01:39.172Z,6.43
2022-10-13T08:04:06.974Z,6.53
2022-10-13T08:06:34.899Z,7.80
2022-10-13T08:09:03.510Z,7.00
2022-10-13T08:11:31.771Z,7.18
2022-10-13T08:14:01.594Z,6.90
2022-10-13T08:16:30.404Z,6.78
2022-10-13T08:19:00.144Z,8.75
2022-10-13T08:24:19.352Z,8.77
2022-10-13T08:26:47.669Z,6.30
2022-10-13T08:29:21.824Z,7.05
2022-10-13T08:31:50.933Z,6.85
2022-10-13T08:34:20.551Z,7.57
2022-10-13T08:36:48.762Z,6.45
2022-10-13T08:39:16.635Z,7.25
2022-10-13T08:41:45.574Z,7.28
2022-10-13T08:47:16.666Z,7.20
2022-10-13T08:49:46.536Z,6.57
2022-10-13T08:52:19.603Z,7.05
2022-10-13T08:54:47.680Z,7.75
2022-10-13T08:57:15.574Z,6.55
2022-10-13T08:59:43.274Z,6.30
2022-10-13T09:02:15.169Z,6.25
2022-10-13T09:04:49.259Z,7.43
2022-10-13T09:07:20.621Z,6.63
2022-10-13T09:09:52.562Z,6.07
2022-10-13T09:12:24.184Z,6.20
2022-10-13T09:14:59.458Z,5.90
2022-10-13T09:17:27.780Z,6.38
2022-10-13T09:20:02.833Z,5.93
2022-10-13T09:22:32.820Z,5.97
2022-10-13T09:25:20.199Z,5.70
2022-10-13T09:27:50.379Z,7.05
2022-10-13T09:30:38.079Z,6.10
2022-10-13T09:33:24.477Z,5.32
2022-10-13T09:39:13.569Z,5.30
2022-10-13T09:41:42.461Z,5.72
2022-10-13T09:44:14.077Z,5.95
2022-10-13T09:46:49.634Z,4.55
2022-10-13T09:49:35.693Z,4.30
2022-10-13T09:52:05.839Z,6.07
2022-10-13T09:54:45.793Z,4.10
2022-10-13T09:57:29.652Z,4.97
2022-10-13T10:00:06.137Z,5.78
2022-10-13T10:02:37.317Z,4.07
2022-10-13T10:05:08.446Z,5.45
2022-10-13T10:07:36.073Z,4.82
2022-10-13T10:10:09.162Z,4.50
2022-10-13T10:12:40.815Z,5.40
2022-10-13T10:15:21.096Z,4.93
2022-10-13T10:17:57.122Z,4.70
2022-10-13T10:20:41.400Z,5.88
2022-10-13T10:23:15.458Z,5.05
2022-10-13T10:25:47.992Z,4.88
2022-10-13T10:28:35.970Z,3.95
2022-10-13T10:31:11.914Z,4.13
2022-10-13T10:33:50.586Z,4.80
2022-10-13T10:36:23.541Z,6.78
2022-10-13T10:38:59.974Z,5.25
2022-10-13T10:41:41.692Z,5.65
2022-10-13T10:44:12.419Z,4.97
2022-10-13T10:46:43.306Z,5.15
2022-10-13T10:49:18.790Z,4.00
2022-10-13T10:51:47.198Z,4.53
2022-10-13T10:54:26.002Z,4.32
2022-10-13T10:56:59.328Z,4.55
2022-10-13T10:59:40.115Z,4.47
2022-10-13T11:02:29.122Z,4.63
2022-10-13T11:05:02.101Z,5.07
2022-10-13T11:07:55.819Z,4.47
2022-10-13T11:10:26.250Z,4.75
2022-10-13T11:13:28.633Z,4.25
2022-10-13T11:15:56.541Z,3.15
2022-10-13T11:19:10.137Z,4.55
2022-10-13T11:22:11.835Z,3.13
2022-10-13T11:25:00.539Z,3.97
2022-10-13T11:27:39.271Z,4.30
2022-10-13T11:30:49.967Z,3.83
2022-10-13T11:33:53.133Z,5.88
2022-10-13T11:36:37.878Z,3.58
2022-10-13T11:39:43.130Z,4.00
2022-10-13T11:42:27.209Z,3.78
2022-10-13T11:44:57.808Z,4.10
2022-10-13T11:47:54.011Z,4.10
2022-10-13T11:50:31.062Z,3.63
2022-10-13T11:53:19.241Z,5.47
2022-10-13T11:55:51.584Z,3.42
2022-10-13T11:58:22.454Z,4.53
2022-10-13T12:00:55.402Z,3.95
2022-10-13T12:06:33.065Z,4.65
2022-10-13T12:09:04.358Z,4.70
2022-10-13T12:11:34.898Z,3.75
2022-10-13T12:14:03.770Z,3.63
2022-10-13T12:16:31.822Z,4.03
2022-10-13T12:19:21.260Z,4.13
2022-10-13T12:21:50.544Z,3.65
2022-10-13T12:24:18.477Z,3.33
2022-10-13T12:26:46.150Z,4.43
2022-10-13T12:29:15.952Z,5.07
2022-10-13T12:31:47.676Z,4.50
2022-10-13T12:34:23.830Z,3.83
2022-10-13T12:37:00.454Z,4.40
2022-10-13T12:39:29.917Z,3.88
2022-10-13T12:41:58.888Z,4.10
2022-10-13T12:44:29.040Z,4.00
2022-10-13T12:46:59.061Z,4.18
2022-10-13T12:49:29.578Z,3.55
2022-10-13T12:52:04.857Z,3.55
2022-10-13T12:54:35.521Z,3.97
2022-10-13T12:57:07.228Z,3.80
2022-10-13T12:59:35.432Z,2.63
2022-10-13T13:02:16.229Z,3.58
2022-10-13T13:04:45.190Z,2.65
2022-10-13T13:07:38.174Z,4.55
2022-10-13T13:10:19.412Z,3.60
2022-10-13T13:12:49.052Z,3.28
2022-10-13T13:15:33.528Z,3.15
2022-10-13T13:18:39.565Z,2.97
2022-10-13T13:21:10.617Z,3.75
2022-10-13T13:23:38.817Z,6.40
2022-10-13T13:26:14.079Z,3.67
2022-10-13T13:28:46.519Z,3.70
2022-10-13T13:31:16.122Z,3.65
2022-10-13T13:33:43.820Z,3.67
2022-10-13T13:36:18.885Z,3.75
2022-10-13T13:38:46.822Z,3.85
2022-10-13T13:41:15.404Z,3.58
2022-10-13T13:43:43.461Z,3.90
2022-10-13T13:46:16.745Z,3.20
2022-10-13T13:48:44.740Z,3.80
2022-10-13T13:51:12.522Z,3.45
2022-10-13T13:53:41.632Z,3.38
2022-10-13T13:56:12.618Z,3.38
2022-10-13T13:58:40.412Z,3.78
2022-10-13T14:01:08.302Z,3.67
2022-10-13T14:03:36.099Z,3.40
2022-10-13T14:06:03.789Z,4.40
2022-10-13T14:08:32.583Z,3.75
2022-10-13T14:11:02.135Z,4.88
2022-10-13T14:13:29.776Z,3.50
2022-10-13T14:15:58.373Z,2.85
2022-10-13T14:18:26.122Z,2.90
2022-10-13T14:20:53.767Z,2.92
2022-10-13T14:23:21.452Z,3.65
2022-10-13T14:25:49.297Z,3.50
2022-10-13T14:28:18.692Z,3.83
2022-10-13T14:30:46.418Z,3.83
2022-10-13T14:33:19.091Z,3.30
2022-10-13T14:35:47.033Z,3.90
2022-10-13T14:38:15.089Z,4.05
2022-10-13T14:40:42.950Z,4.55
2022-10-13T14:43:10.618Z,4.00
2022-10-13T14:45:39.889Z,4.40
2022-10-13T14:48:07.584Z,3.97
2022-10-13T14:50:35.287Z,3.47
2022-10-13T14:53:05.277Z,4.25
2022-10-13T14:55:32.931Z,3.63
2022-10-13T14:58:00.608Z,3.85
2022-10-13T15:00:28.402Z,4.57
2022-10-13T15:02:57.434Z,3.42
2022-10-13T15:05:25.239Z,3.65
2022-10-13T15:07:52.897Z,5.07
2022-10-13T15:10:20.758Z,3.45
2022-10-13T15:12:48.480Z,5.07
2022-10-13T15:15:16.245Z,4.93
2022-10-13T15:17:43.895Z,5.30
2022-10-13T15:20:13.398Z,3.60
2022-10-13T15:22:41.091Z,3.55
2022-10-13T15:25:11.712Z,3.42
2022-10-13T15:27:42.164Z,3.60
2022-10-13T15:30:11.438Z,3.88
2022-10-13T15:32:39.129Z,4.97
2022-10-13T15:37:54.259Z,3.95
2022-10-13T15:40:21.930Z,4.20
2022-10-13T15:42:49.594Z,4.05
2022-10-13T15:45:17.496Z,4.63
2022-10-13T15:47:45.225Z,4.53
2022-10-13T15:50:12.917Z,4.13
2022-10-13T15:52:41.546Z,4.60
2022-10-13T15:55:13.093Z,5.10
2022-10-13T15:57:40.793Z,4.55
2022-10-13T16:00:11.962Z,4.47
2022-10-13T16:02:40.224Z,4.13
2022-10-13T16:05:09.623Z,4.63
2022-10-13T16:07:37.529Z,4.70
2022-10-13T16:10:05.663Z,5.18
2022-10-13T16:12:34.706Z,4.63
2022-10-13T16:15:02.463Z,4.70
2022-10-13T16:17:30.102Z,4.70
2022-10-13T16:19:57.827Z,4.03
2022-10-13T16:22:25.586Z,4.63
2022-10-13T16:24:53.513Z,5.25
2022-10-13T16:27:22.063Z,5.07
2022-10-13T16:29:51.173Z,4.80
2022-10-13T16:32:19.152Z,4.05
2022-10-13T16:34:47.803Z,4.82
2022-10-13T16:37:15.482Z,5.57
2022-10-13T16:39:46.489Z,4.30
2022-10-13T16:42:16.837Z,5.05
2022-10-13T16:44:44.603Z,3.97
2022-10-13T16:47:18.049Z,4.25
2022-10-13T16:49:46.249Z,4.43
2022-10-13T16:52:13.952Z,5.15
2022-10-13T16:54:41.678Z,4.38
2022-10-13T16:57:09.631Z,4.43
2022-10-13T16:59:39.445Z,5.57
2022-10-13T17:02:07.599Z,5.32
2022-10-13T17:04:36.956Z,5.97
2022-10-13T17:07:04.634Z,4.93
2022-10-13T17:09:32.359Z,5.95
2022-10-13T17:12:00.470Z,5.03
2022-10-13T17:14:28.239Z,5.68
2022-10-13T17:16:57.951Z,5.53
2022-10-13T17:19:26.092Z,5.30
2022-10-13T17:21:55.135Z,6.22
2022-10-13T17:24:22.942Z,5.38
2022-10-13T17:26:51.162Z,6.40
2022-10-13T17:29:18.846Z,7.60
2022-10-13T17:31:46.556Z,9.50
2022-10-13T17:34:14.261Z,5.60
2022-10-13T17:36:42.055Z,4.85
2022-10-13T17:39:12.490Z,4.78
2022-10-13T17:41:42.020Z,5.63
2022-10-13T17:44:10.962Z,5.47
2022-10-13T17:46:39.741Z,6.85
2022-10-13T17:49:08.776Z,5.03
2022-10-13T17:51:36.496Z,6.88
2022-10-13T17:54:04.956Z,6.15
2022-10-13T17:56:34.126Z,5.70
2022-10-13T17:59:02.798Z,8.77
2022-10-13T18:01:32.524Z,6.55
2022-10-13T18:04:02.528Z,5.82
2022-10-13T18:06:36.785Z,4.88
2022-10-13T18:09:10.960Z,5.15
2022-10-13T18:11:40.139Z,5.57
2022-10-13T18:14:08.884Z,6.05
2022-10-13T18:16:37.209Z,5.22
2022-10-13T18:19:05.803Z,4.97
2022-10-13T18:21:33.512Z,5.70
2022-10-13T18:24:03.273Z,4.43
2022-10-13T18:26:34.836Z,4.63
2022-10-13T18:29:05.660Z,4.85
2022-10-13T18:31:35.220Z,6.13
2022-10-13T18:34:05.122Z,4.78
2022-10-13T18:36:34.350Z,5.30
2022-10-13T18:39:05.071Z,5.63
2022-10-13T18:41:33.793Z,6.18
2022-10-13T18:44:03.400Z,4.95
2022-10-13T18:46:33.417Z,4.00
2022-10-13T18:49:01.105Z,5.40
2022-10-13T18:51:35.691Z,4.78
2022-10-13T18:54:04.799Z,4.60
2022-10-13T18:56:36.694Z,4.28
2022-10-13T18:59:06.331Z,5.32
2022-10-13T19:01:39.343Z,5.32
2022-10-13T19:04:07.484Z,6.05
2022-10-13T19:06:35.518Z,4.40
2022-10-13T19:09:05.678Z,5.45
2022-10-13T19:11:34.198Z,5.93
2022-10-13T19:14:02.724Z,6.45
2022-10-13T19:16:31.970Z,5.68
2022-10-13T19:19:02.329Z,5.45
2022-10-13T19:21:30.279Z,5.35
2022-10-13T19:24:01.837Z,5.22
2022-10-13T19:26:32.299Z,5.55
2022-10-13T19:29:02.297Z,5.63
2022-10-13T19:31:31.794Z,7.20
2022-10-13T19:34:00.838Z,6.30
2022-10-13T19:36:33.034Z,7.70
2022-10-13T19:39:02.971Z,7.78
2022-10-13T19:41:33.062Z,7.88
2022-10-13T19:44:01.480Z,9.15
2022-10-13T19:46:29.298Z,7.93
2022-10-13T19:48:58.541Z,11.25
2022-10-13T19:51:26.255Z,12.07
2022-10-13T19:53:55.475Z,8.02
2022-10-13T19:56:25.083Z,7.43
2022-10-13T19:58:55.791Z,6.57
2022-10-13T20:01:23.821Z,6.72
2022-10-13T20:03:51.841Z,7.53
2022-10-13T20:06:20.856Z,6.55
2022-10-13T20:08:48.842Z,5.57
2022-10-13T20:11:24.102Z,6.05
2022-10-13T20:13:53.878Z,6.30
2022-10-13T20:16:24.065Z,6.60
2022-10-13T20:18:53.861Z,7.18
2022-10-13T20:21:22.551Z,6.53
2022-10-13T20:23:51.063Z,7.43
2022-10-13T20:26:21.079Z,8.57
2022-10-13T20:28:50.501Z,6.55
2022-10-13T20:31:20.903Z,7.15
2022-10-13T20:33:50.267Z,9.25
2022-10-13T20:36:19.010Z,7.53
2022-10-13T20:38:48.154Z,6.97
2022-10-13T20:41:22.432Z,6.55
2022-10-13T20:43:50.450Z,6.68
2022-10-13T20:46:20.357Z,6.20
2022-10-13T20:49:09.805Z,6.00
2022-10-13T20:51:36.918Z,5.68
2022-10-13T20:54:05.245Z,6.00
2022-10-13T20:56:35.597Z,5.65
2022-10-13T20:59:08.008Z,5.57
2022-10-13T21:01:36.924Z,5.75
2022-10-13T21:04:05.486Z,5.60
2022-10-13T21:06:34.295Z,6.28
2022-10-13T21:09:02.636Z,6.55
2022-10-13T21:11:30.554Z,6.47
2022-10-13T21:13:59.701Z,6.57
2022-10-13T21:16:29.425Z,4.95
2022-10-13T21:18:58.457Z,5.93
2022-10-13T21:21:27.848Z,6.25
2022-10-13T21:23:58.101Z,5.70
2022-10-13T21:26:28.326Z,4.90
2022-10-13T21:28:56.550Z,5.43
2022-10-13T21:31:27.927Z,7.70
2022-10-13T21:33:55.841Z,5.93
2022-10-13T21:36:25.696Z,7.03
2022-10-13T21:38:55.394Z,5.78
2022-10-13T21:41:23.969Z,6.07
2022-10-13T21:43:52.521Z,6.65
2022-10-13T21:46:22.073Z,6.35
2022-10-13T21:48:54.321Z,7.28
2022-10-13T21:51:24.244Z,7.47
2022-10-13T21:53:53.920Z,8.05
2022-10-13T21:56:22.853Z,7.03
2022-10-13T21:58:50.537Z,6.88
2022-10-13T22:01:19.758Z,6.20
2022-10-13T22:03:48.668Z,5.68
2022-10-13T22:06:19.673Z,6.47
2022-10-13T22:08:49.213Z,6.53
2022-10-13T22:11:18.192Z,6.43
2022-10-13T22:13:46.294Z,6.03
2022-10-13T22:16:16.911Z,6.75
2022-10-13T22:18:45.287Z,5.93
2022-10-13T22:21:15.224Z,7.70
2022-10-13T22:23:44.625Z,7.28
2022-10-13T22:26:13.274Z,7.32
2022-10-13T22:28:41.505Z,8.23
2022-10-13T22:31:11.563Z,7.10
2022-10-13T22:33:41.466Z,6.65
2022-10-13T22:36:10.004Z,6.65
2022-10-13T22:38:37.705Z,7.55
2022-10-13T22:41:08.103Z,7.63
2022-10-13T22:43:36.493Z,7.22
2022-10-13T22:46:04.306Z,6.32
2022-10-13T22:48:36.974Z,7.63
2022-10-13T22:51:07.751Z,7.50
2022-10-13T22:53:35.707Z,7.93
2022-10-13T22:56:08.672Z,7.35
2022-10-13T22:58:36.375Z,8.70
2022-10-13T23:01:08.710Z,9.10
2022-10-13T23:03:36.590Z,7.35
2022-10-13T23:06:04.988Z,8.05
2022-10-13T23:08:32.665Z,9.00
2022-10-13T23:11:00.402Z,8.35
2022-10-13T23:13:29.449Z,8.88
2022-10-13T23:16:02.235Z,9.48
2022-10-13T23:18:29.917Z,8.52
2022-10-13T23:20:57.614Z,7.75
2022-10-13T23:23:25.371Z,8.93
2022-10-13T23:25:53.103Z,9.10
2022-10-13T23:28:20.952Z,10.55
2022-10-13T23:30:50.090Z,9.63
2022-10-13T23:33:17.870Z,8.85
2022-10-13T23:35:45.665Z,9.90
2022-10-13T23:38:13.361Z,9.30
2022-10-13T23:40:41.005Z,8.90
2022-10-13T23:43:08.628Z,9.45
2022-10-13T23:45:36.392Z,8.82
2022-10-13T23:48:07.349Z,9.30
2022-10-13T23:50:35.379Z,10.75
2022-10-13T23:53:03.307Z,10.80
2022-10-13T23:55:31.092Z,9.55
2022-10-13T23:57:58.735Z,8.63
